Airfield :
LOGIN :

Register | Disclaimer

   EN    FR    IT 

 










Legend :    VFR   Marginal VFR   IFR   Intensive IFR   Very Intensive IFR
Visi :
Ceiling :
>= 8 km
>= 3000ft
5 to 8 km
1000 to 3000 ft
1500m to 5 km
500 to 1000 ft
800 to 1500m
200 to 500 ft
< 800m
< 200 ft
Symbols :   Thunderstorms  Fog  Heavy snow  Heavy precipitations  Wind > 20 kt
SIGMETs :     Misc.  Thunderstorms  Icing  Turbulence  Mountain Waves  Volcanic Ashes






- Airport Elevation : 1400 ft


LSME - Luzern Emmen

CURRENT METAR :
  • 092320Z AUTO 25005KT 210V280 9999NDV -SHRA SCT032 OVC038 05/01 Q1019 RMK

EXPIRED METARs :
  • 092250Z AUTO 26008KT 230V300 9999NDV -RA FEW026 BKN038 OVC054 05/02 Q1018 RMK
  • 092220Z AUTO 25008KT 210V280 9999NDV -RA FEW027 BKN036 BKN056 05/02 Q1018 RMK
  • 092150Z AUTO 24008KT 9999NDV -SHRA SCT028 BKN035 OVC045 05/02 Q1017 RMK
  • 092120Z AUTO 24008KT 9999NDV -SHRA FEW031 SCT035 OVC049 05/02 Q1017 RMK
  • 092050Z AUTO 24008KT 9999NDV -SHRA SCT030 BKN058 OVC089 06/02 Q1016 RMK
  • 092020Z AUTO 24008KT 9999NDV -RA FEW028 BKN032 OVC055 06/02 Q1015 RMK

Expired Forecast.



MET'MAP, your aeronautical weather chart ! - Copyright ORBIFLY December 2007 - Disclaimer

ORBIFLY MET'MAP TEAM :

Programming & Development : Alexandra Zaïnal
Concept & original design : Baudouin d'Aumeries
Assistance for programming : Marc-Olivier Méhu
Technical & hardware support : Manuel Goepfert

Contact : metmap@orbifly.com




SOURCES & CREDITS :

   NOAA